Terminal Aerodrome Forecast
Issued by NWS Louisville, KY

Home | Current Version | Previous Version | Text Only | Print | Product List | Glossary On
Versions: 1 2 3 4 5 6 7 8 9 10 11 12 13 14 15
355
FTUS43 KLMK 291137
TAFLEX
TAF
KLEX 291137Z 2912/3012 18005KT P6SM BKN120
     FM291600 21007KT P6SM SCT040 BKN200
     FM292100 22006KT P6SM VCSH SCT040
     FM300200 VRB03KT P6SM SCT250=

USA.gov is the U.S. government's official web portal to all federal, state and local government web resources and services.